sensor_id;sensor_type;location;lat;lon;timestamp;temperature;humidity
59975;DHT22;62136;-35.664;-63.766;2023-06-19T00:00:31;16.80;46.90
59975;DHT22;62136;-35.664;-63.766;2023-06-19T00:02:58;16.70;46.80
59975;DHT22;62136;-35.664;-63.766;2023-06-19T00:05:25;16.70;46.90
59975;DHT22;62136;-35.664;-63.766;2023-06-19T00:07:52;16.80;47.00
59975;DHT22;62136;-35.664;-63.766;2023-06-19T00:10:19;16.70;46.90
59975;DHT22;62136;-35.664;-63.766;2023-06-19T00:12:47;16.70;46.90
59975;DHT22;62136;-35.664;-63.766;2023-06-19T00:15:14;16.70;47.00
59975;DHT22;62136;-35.664;-63.766;2023-06-19T00:17:41;16.70;47.00
59975;DHT22;62136;-35.664;-63.766;2023-06-19T00:20:09;16.70;47.00
59975;DHT22;62136;-35.664;-63.766;2023-06-19T00:22:36;16.70;47.10
59975;DHT22;62136;-35.664;-63.766;2023-06-19T00:25:03;16.70;47.00
59975;DHT22;62136;-35.664;-63.766;2023-06-19T00:27:31;16.70;47.10
59975;DHT22;62136;-35.664;-63.766;2023-06-19T00:29:58;16.70;47.20
59975;DHT22;62136;-35.664;-63.766;2023-06-19T00:32:31;16.70;47.10
59975;DHT22;62136;-35.664;-63.766;2023-06-19T00:34:58;16.70;47.20
59975;DHT22;62136;-35.664;-63.766;2023-06-19T00:37:27;16.70;47.20
59975;DHT22;62136;-35.664;-63.766;2023-06-19T00:39:58;16.70;47.30
59975;DHT22;62136;-35.664;-63.766;2023-06-19T00:42:25;16.60;47.20
59975;DHT22;62136;-35.664;-63.766;2023-06-19T00:44:52;16.60;47.20
59975;DHT22;62136;-35.664;-63.766;2023-06-19T00:47:19;16.60;47.20
59975;DHT22;62136;-35.664;-63.766;2023-06-19T00:49:46;16.60;47.30
59975;DHT22;62136;-35.664;-63.766;2023-06-19T00:52:13;16.60;47.30
59975;DHT22;62136;-35.664;-63.766;2023-06-19T00:54:40;16.60;47.30
59975;DHT22;62136;-35.664;-63.766;2023-06-19T00:57:07;16.60;47.20
59975;DHT22;62136;-35.664;-63.766;2023-06-19T00:59:35;16.60;47.40
59975;DHT22;62136;-35.664;-63.766;2023-06-19T01:02:02;16.60;47.40
59975;DHT22;62136;-35.664;-63.766;2023-06-19T01:04:30;16.60;47.40
59975;DHT22;62136;-35.664;-63.766;2023-06-19T01:07:05;16.60;47.40
59975;DHT22;62136;-35.664;-63.766;2023-06-19T01:09:46;16.60;47.40
59975;DHT22;62136;-35.664;-63.766;2023-06-19T01:12:22;16.60;47.40
59975;DHT22;62136;-35.664;-63.766;2023-06-19T01:15:14;16.60;47.40
59975;DHT22;62136;-35.664;-63.766;2023-06-19T01:17:41;16.60;47.40
59975;DHT22;62136;-35.664;-63.766;2023-06-19T01:20:10;16.60;47.40
59975;DHT22;62136;-35.664;-63.766;2023-06-19T01:22:37;16.50;47.40
59975;DHT22;62136;-35.664;-63.766;2023-06-19T01:25:05;16.50;47.50
59975;DHT22;62136;-35.664;-63.766;2023-06-19T01:27:33;16.50;47.60
59975;DHT22;62136;-35.664;-63.766;2023-06-19T01:30:01;16.50;47.50
59975;DHT22;62136;-35.664;-63.766;2023-06-19T01:32:34;16.50;47.50
59975;DHT22;62136;-35.664;-63.766;2023-06-19T01:35:03;16.50;47.60
59975;DHT22;62136;-35.664;-63.766;2023-06-19T01:37:32;16.50;47.70
59975;DHT22;62136;-35.664;-63.766;2023-06-19T01:40:01;16.50;47.70
59975;DHT22;62136;-35.664;-63.766;2023-06-19T01:42:28;16.50;48.10
59975;DHT22;62136;-35.664;-63.766;2023-06-19T01:44:55;16.50;47.60
59975;DHT22;62136;-35.664;-63.766;2023-06-19T01:47:23;16.50;47.70
59975;DHT22;62136;-35.664;-63.766;2023-06-19T01:49:50;16.50;47.70
59975;DHT22;62136;-35.664;-63.766;2023-06-19T01:52:17;16.50;47.70
59975;DHT22;62136;-35.664;-63.766;2023-06-19T01:54:44;16.50;47.70
59975;DHT22;62136;-35.664;-63.766;2023-06-19T01:57:11;16.50;47.80
59975;DHT22;62136;-35.664;-63.766;2023-06-19T01:59:38;16.40;47.60
59975;DHT22;62136;-35.664;-63.766;2023-06-19T02:02:08;16.50;47.70
59975;DHT22;62136;-35.664;-63.766;2023-06-19T02:04:36;16.40;47.70
59975;DHT22;62136;-35.664;-63.766;2023-06-19T02:07:03;16.40;47.80
59975;DHT22;62136;-35.664;-63.766;2023-06-19T02:09:30;16.40;47.80
59975;DHT22;62136;-35.664;-63.766;2023-06-19T02:11:57;16.40;47.80
59975;DHT22;62136;-35.664;-63.766;2023-06-19T02:14:28;16.40;47.80
59975;DHT22;62136;-35.664;-63.766;2023-06-19T02:16:55;16.40;47.90
59975;DHT22;62136;-35.664;-63.766;2023-06-19T02:19:25;16.40;47.90
59975;DHT22;62136;-35.664;-63.766;2023-06-19T02:21:52;16.40;47.80
59975;DHT22;62136;-35.664;-63.766;2023-06-19T02:24:19;16.40;47.80
59975;DHT22;62136;-35.664;-63.766;2023-06-19T02:26:48;16.40;47.90
59975;DHT22;62136;-35.664;-63.766;2023-06-19T02:29:15;16.40;48.00
59975;DHT22;62136;-35.664;-63.766;2023-06-19T02:31:43;16.40;48.00
59975;DHT22;62136;-35.664;-63.766;2023-06-19T02:34:10;16.40;48.10
59975;DHT22;62136;-35.664;-63.766;2023-06-19T02:36:38;16.30;47.90
59975;DHT22;62136;-35.664;-63.766;2023-06-19T02:39:05;16.30;48.00
59975;DHT22;62136;-35.664;-63.766;2023-06-19T02:41:35;16.30;48.10
59975;DHT22;62136;-35.664;-63.766;2023-06-19T02:44:04;16.30;48.10
59975;DHT22;62136;-35.664;-63.766;2023-06-19T02:46:31;16.30;48.00
59975;DHT22;62136;-35.664;-63.766;2023-06-19T02:48:58;16.30;48.10
59975;DHT22;62136;-35.664;-63.766;2023-06-19T02:51:27;16.30;48.10
59975;DHT22;62136;-35.664;-63.766;2023-06-19T02:53:54;16.30;48.10
59975;DHT22;62136;-35.664;-63.766;2023-06-19T02:56:21;16.30;48.20
59975;DHT22;62136;-35.664;-63.766;2023-06-19T02:58:51;16.30;48.10
59975;DHT22;62136;-35.664;-63.766;2023-06-19T03:01:21;16.30;48.10
59975;DHT22;62136;-35.664;-63.766;2023-06-19T03:03:49;16.30;48.20
59975;DHT22;62136;-35.664;-63.766;2023-06-19T03:06:16;16.30;48.10
59975;DHT22;62136;-35.664;-63.766;2023-06-19T03:08:44;16.30;48.30
59975;DHT22;62136;-35.664;-63.766;2023-06-19T03:11:11;16.30;48.20
59975;DHT22;62136;-35.664;-63.766;2023-06-19T03:14:07;16.20;48.30
59975;DHT22;62136;-35.664;-63.766;2023-06-19T03:16:41;16.30;48.10
59975;DHT22;62136;-35.664;-63.766;2023-06-19T03:19:13;16.20;48.30
59975;DHT22;62136;-35.664;-63.766;2023-06-19T03:21:40;16.20;48.40
59975;DHT22;62136;-35.664;-63.766;2023-06-19T03:24:07;16.20;48.40
59975;DHT22;62136;-35.664;-63.766;2023-06-19T03:26:34;16.20;48.40
59975;DHT22;62136;-35.664;-63.766;2023-06-19T03:29:01;16.20;48.20
59975;DHT22;62136;-35.664;-63.766;2023-06-19T03:31:28;16.20;48.40
59975;DHT22;62136;-35.664;-63.766;2023-06-19T03:33:55;16.20;48.50
59975;DHT22;62136;-35.664;-63.766;2023-06-19T03:36:22;16.20;48.50
59975;DHT22;62136;-35.664;-63.766;2023-06-19T03:38:49;16.20;48.50
59975;DHT22;62136;-35.664;-63.766;2023-06-19T03:41:16;16.20;48.60
59975;DHT22;62136;-35.664;-63.766;2023-06-19T03:43:43;16.20;48.60
59975;DHT22;62136;-35.664;-63.766;2023-06-19T03:46:10;16.20;48.60
59975;DHT22;62136;-35.664;-63.766;2023-06-19T03:48:37;16.10;48.50
59975;DHT22;62136;-35.664;-63.766;2023-06-19T03:51:04;16.20;48.70
59975;DHT22;62136;-35.664;-63.766;2023-06-19T03:53:32;16.10;48.70
59975;DHT22;62136;-35.664;-63.766;2023-06-19T03:55:59;16.10;48.40
59975;DHT22;62136;-35.664;-63.766;2023-06-19T03:58:26;16.10;48.50
59975;DHT22;62136;-35.664;-63.766;2023-06-19T04:00:53;16.10;48.60
59975;DHT22;62136;-35.664;-63.766;2023-06-19T04:03:20;16.10;48.70
59975;DHT22;62136;-35.664;-63.766;2023-06-19T04:05:47;16.10;48.70
59975;DHT22;62136;-35.664;-63.766;2023-06-19T04:08:15;16.10;48.80
59975;DHT22;62136;-35.664;-63.766;2023-06-19T04:10:43;16.10;49.20
59975;DHT22;62136;-35.664;-63.766;2023-06-19T04:13:10;16.10;48.80
59975;DHT22;62136;-35.664;-63.766;2023-06-19T04:15:37;16.10;48.80
59975;DHT22;62136;-35.664;-63.766;2023-06-19T04:18:04;16.10;48.90
59975;DHT22;62136;-35.664;-63.766;2023-06-19T04:20:31;16.10;48.90
59975;DHT22;62136;-35.664;-63.766;2023-06-19T04:22:58;16.10;48.90
59975;DHT22;62136;-35.664;-63.766;2023-06-19T04:25:25;16.10;49.00
59975;DHT22;62136;-35.664;-63.766;2023-06-19T04:27:52;16.00;48.90
59975;DHT22;62136;-35.664;-63.766;2023-06-19T04:30:19;16.10;48.90
59975;DHT22;62136;-35.664;-63.766;2023-06-19T04:36:53;16.00;49.00
59975;DHT22;62136;-35.664;-63.766;2023-06-19T04:39:25;16.00;49.10
59975;DHT22;62136;-35.664;-63.766;2023-06-19T04:41:52;16.00;48.90
59975;DHT22;62136;-35.664;-63.766;2023-06-19T04:44:19;16.00;49.00
59975;DHT22;62136;-35.664;-63.766;2023-06-19T04:46:48;16.00;49.00
59975;DHT22;62136;-35.664;-63.766;2023-06-19T04:49:15;16.00;49.10
59975;DHT22;62136;-35.664;-63.766;2023-06-19T04:51:42;16.00;49.20
59975;DHT22;62136;-35.664;-63.766;2023-06-19T04:54:09;15.90;49.00
59975;DHT22;62136;-35.664;-63.766;2023-06-19T04:56:36;15.90;48.90
59975;DHT22;62136;-35.664;-63.766;2023-06-19T04:59:03;16.00;49.10
59975;DHT22;62136;-35.664;-63.766;2023-06-19T05:01:30;15.90;49.20
59975;DHT22;62136;-35.664;-63.766;2023-06-19T05:03:57;15.90;49.10
59975;DHT22;62136;-35.664;-63.766;2023-06-19T05:06:26;15.90;49.20
59975;DHT22;62136;-35.664;-63.766;2023-06-19T05:08:53;15.90;49.10
59975;DHT22;62136;-35.664;-63.766;2023-06-19T05:11:20;15.90;49.20
59975;DHT22;62136;-35.664;-63.766;2023-06-19T05:13:47;15.90;49.30
59975;DHT22;62136;-35.664;-63.766;2023-06-19T05:16:14;15.90;49.20
59975;DHT22;62136;-35.664;-63.766;2023-06-19T05:18:43;15.90;49.30
59975;DHT22;62136;-35.664;-63.766;2023-06-19T05:21:10;15.90;49.30
59975;DHT22;62136;-35.664;-63.766;2023-06-19T05:23:37;15.80;49.30
59975;DHT22;62136;-35.664;-63.766;2023-06-19T05:26:04;15.90;49.30
59975;DHT22;62136;-35.664;-63.766;2023-06-19T05:28:32;15.90;49.40
59975;DHT22;62136;-35.664;-63.766;2023-06-19T05:30:59;15.90;49.40
59975;DHT22;62136;-35.664;-63.766;2023-06-19T05:33:26;15.90;49.40
59975;DHT22;62136;-35.664;-63.766;2023-06-19T05:35:54;15.80;49.40
59975;DHT22;62136;-35.664;-63.766;2023-06-19T05:38:22;15.90;49.90
59975;DHT22;62136;-35.664;-63.766;2023-06-19T05:40:52;15.80;49.40
59975;DHT22;62136;-35.664;-63.766;2023-06-19T05:43:19;15.80;49.20
59975;DHT22;62136;-35.664;-63.766;2023-06-19T05:45:46;15.80;49.30
59975;DHT22;62136;-35.664;-63.766;2023-06-19T05:48:13;15.80;49.50
59975;DHT22;62136;-35.664;-63.766;2023-06-19T05:50:41;15.90;49.40
59975;DHT22;62136;-35.664;-63.766;2023-06-19T05:53:08;15.80;49.50
59975;DHT22;62136;-35.664;-63.766;2023-06-19T05:55:35;15.80;49.60
59975;DHT22;62136;-35.664;-63.766;2023-06-19T05:58:03;15.80;49.60
59975;DHT22;62136;-35.664;-63.766;2023-06-19T06:00:30;15.80;49.60
59975;DHT22;62136;-35.664;-63.766;2023-06-19T06:02:58;15.80;49.40
59975;DHT22;62136;-35.664;-63.766;2023-06-19T06:05:28;15.80;49.60
59975;DHT22;62136;-35.664;-63.766;2023-06-19T06:07:56;15.80;49.50
59975;DHT22;62136;-35.664;-63.766;2023-06-19T06:10:23;15.80;49.70
59975;DHT22;62136;-35.664;-63.766;2023-06-19T06:12:51;15.80;49.80
59975;DHT22;62136;-35.664;-63.766;2023-06-19T06:15:18;15.80;49.80
59975;DHT22;62136;-35.664;-63.766;2023-06-19T06:17:45;15.80;49.80
59975;DHT22;62136;-35.664;-63.766;2023-06-19T06:20:12;15.80;49.60
59975;DHT22;62136;-35.664;-63.766;2023-06-19T06:22:40;15.80;49.80
59975;DHT22;62136;-35.664;-63.766;2023-06-19T06:25:08;15.70;49.80
59975;DHT22;62136;-35.664;-63.766;2023-06-19T06:27:38;15.80;49.70
59975;DHT22;62136;-35.664;-63.766;2023-06-19T06:30:06;15.80;49.80
59975;DHT22;62136;-35.664;-63.766;2023-06-19T06:32:33;15.80;49.90
59975;DHT22;62136;-35.664;-63.766;2023-06-19T06:35:00;15.70;49.90
59975;DHT22;62136;-35.664;-63.766;2023-06-19T06:37:27;15.80;50.00
59975;DHT22;62136;-35.664;-63.766;2023-06-19T06:39:54;15.70;49.90
59975;DHT22;62136;-35.664;-63.766;2023-06-19T06:42:21;15.80;50.00
59975;DHT22;62136;-35.664;-63.766;2023-06-19T06:44:49;15.80;50.10
59975;DHT22;62136;-35.664;-63.766;2023-06-19T06:47:16;15.70;50.00
59975;DHT22;62136;-35.664;-63.766;2023-06-19T06:49:43;15.70;49.90
59975;DHT22;62136;-35.664;-63.766;2023-06-19T06:52:10;15.70;49.90
59975;DHT22;62136;-35.664;-63.766;2023-06-19T06:54:37;15.80;50.10
59975;DHT22;62136;-35.664;-63.766;2023-06-19T06:57:04;15.80;50.10
59975;DHT22;62136;-35.664;-63.766;2023-06-19T06:59:31;15.70;50.20
59975;DHT22;62136;-35.664;-63.766;2023-06-19T07:01:58;15.70;50.10
59975;DHT22;62136;-35.664;-63.766;2023-06-19T07:04:25;15.70;50.00
59975;DHT22;62136;-35.664;-63.766;2023-06-19T07:06:53;15.70;50.10
59975;DHT22;62136;-35.664;-63.766;2023-06-19T07:09:20;15.70;50.10
59975;DHT22;62136;-35.664;-63.766;2023-06-19T07:11:50;15.70;50.30
59975;DHT22;62136;-35.664;-63.766;2023-06-19T07:14:17;15.70;50.00
59975;DHT22;62136;-35.664;-63.766;2023-06-19T07:16:47;15.70;50.20
59975;DHT22;62136;-35.664;-63.766;2023-06-19T07:19:14;15.70;50.10
59975;DHT22;62136;-35.664;-63.766;2023-06-19T07:21:41;15.70;50.20
59975;DHT22;62136;-35.664;-63.766;2023-06-19T07:24:08;15.70;50.40
59975;DHT22;62136;-35.664;-63.766;2023-06-19T07:26:35;15.70;50.20
59975;DHT22;62136;-35.664;-63.766;2023-06-19T07:29:05;15.70;50.50
59975;DHT22;62136;-35.664;-63.766;2023-06-19T07:31:32;15.70;50.50
59975;DHT22;62136;-35.664;-63.766;2023-06-19T07:33:59;15.70;50.50
59975;DHT22;62136;-35.664;-63.766;2023-06-19T07:36:26;15.70;50.20
59975;DHT22;62136;-35.664;-63.766;2023-06-19T07:38:54;15.70;50.40
59975;DHT22;62136;-35.664;-63.766;2023-06-19T07:41:21;15.70;50.50
59975;DHT22;62136;-35.664;-63.766;2023-06-19T07:43:48;15.70;50.40
59975;DHT22;62136;-35.664;-63.766;2023-06-19T07:46:15;15.70;50.60
59975;DHT22;62136;-35.664;-63.766;2023-06-19T07:48:43;15.70;50.50
59975;DHT22;62136;-35.664;-63.766;2023-06-19T07:51:10;15.70;50.60
59975;DHT22;62136;-35.664;-63.766;2023-06-19T07:53:37;15.70;50.70
59975;DHT22;62136;-35.664;-63.766;2023-06-19T07:56:06;15.70;50.50
59975;DHT22;62136;-35.664;-63.766;2023-06-19T07:58:34;15.70;50.40
59975;DHT22;62136;-35.664;-63.766;2023-06-19T08:01:01;15.70;50.60
59975;DHT22;62136;-35.664;-63.766;2023-06-19T08:03:28;15.70;50.60
59975;DHT22;62136;-35.664;-63.766;2023-06-19T08:05:56;15.70;50.80
59975;DHT22;62136;-35.664;-63.766;2023-06-19T08:08:23;15.70;50.70
59975;DHT22;62136;-35.664;-63.766;2023-06-19T08:10:51;15.70;50.60
59975;DHT22;62136;-35.664;-63.766;2023-06-19T08:13:18;15.70;50.80
59975;DHT22;62136;-35.664;-63.766;2023-06-19T08:15:45;15.70;50.70
59975;DHT22;62136;-35.664;-63.766;2023-06-19T08:18:12;15.70;50.80
59975;DHT22;62136;-35.664;-63.766;2023-06-19T08:20:39;15.70;50.90
59975;DHT22;62136;-35.664;-63.766;2023-06-19T08:23:06;15.70;50.90
59975;DHT22;62136;-35.664;-63.766;2023-06-19T08:25:33;15.70;50.60
59975;DHT22;62136;-35.664;-63.766;2023-06-19T08:28:00;15.70;51.10
59975;DHT22;62136;-35.664;-63.766;2023-06-19T08:30:27;15.70;51.00
59975;DHT22;62136;-35.664;-63.766;2023-06-19T08:32:54;15.70;51.00
59975;DHT22;62136;-35.664;-63.766;2023-06-19T08:35:21;15.70;51.10
59975;DHT22;62136;-35.664;-63.766;2023-06-19T08:37:48;15.70;51.00
59975;DHT22;62136;-35.664;-63.766;2023-06-19T08:40:15;15.70;51.20
59975;DHT22;62136;-35.664;-63.766;2023-06-19T08:42:42;15.70;50.90
59975;DHT22;62136;-35.664;-63.766;2023-06-19T08:45:09;15.70;50.90
59975;DHT22;62136;-35.664;-63.766;2023-06-19T08:47:36;15.70;51.20
59975;DHT22;62136;-35.664;-63.766;2023-06-19T08:50:04;15.70;51.40
59975;DHT22;62136;-35.664;-63.766;2023-06-19T08:52:31;15.70;51.10
59975;DHT22;62136;-35.664;-63.766;2023-06-19T08:54:58;15.70;51.60
59975;DHT22;62136;-35.664;-63.766;2023-06-19T08:57:54;15.70;51.30
59975;DHT22;62136;-35.664;-63.766;2023-06-19T09:00:29;15.70;51.70
59975;DHT22;62136;-35.664;-63.766;2023-06-19T09:03:01;15.70;51.40
59975;DHT22;62136;-35.664;-63.766;2023-06-19T09:05:29;15.70;51.40
59975;DHT22;62136;-35.664;-63.766;2023-06-19T09:07:58;15.70;51.50
59975;DHT22;62136;-35.664;-63.766;2023-06-19T09:10:27;15.70;51.40
59975;DHT22;62136;-35.664;-63.766;2023-06-19T09:18:04;15.70;51.60
59975;DHT22;62136;-35.664;-63.766;2023-06-19T09:20:32;15.70;51.40
59975;DHT22;62136;-35.664;-63.766;2023-06-19T09:23:00;15.70;52.00
59975;DHT22;62136;-35.664;-63.766;2023-06-19T09:25:27;15.70;51.60
59975;DHT22;62136;-35.664;-63.766;2023-06-19T09:27:55;15.70;51.40
59975;DHT22;62136;-35.664;-63.766;2023-06-19T09:30:22;15.70;51.70
59975;DHT22;62136;-35.664;-63.766;2023-06-19T09:32:50;15.70;51.30
59975;DHT22;62136;-35.664;-63.766;2023-06-19T09:35:17;15.70;51.60
59975;DHT22;62136;-35.664;-63.766;2023-06-19T09:37:45;15.70;51.50
59975;DHT22;62136;-35.664;-63.766;2023-06-19T09:40:13;15.70;51.60
59975;DHT22;62136;-35.664;-63.766;2023-06-19T09:42:44;15.70;51.60
59975;DHT22;62136;-35.664;-63.766;2023-06-19T09:45:12;15.70;51.80
59975;DHT22;62136;-35.664;-63.766;2023-06-19T09:47:46;15.70;51.80
59975;DHT22;62136;-35.664;-63.766;2023-06-19T09:50:15;15.70;51.50
59975;DHT22;62136;-35.664;-63.766;2023-06-19T09:52:43;15.70;51.60
59975;DHT22;62136;-35.664;-63.766;2023-06-19T09:55:12;15.70;51.70
59975;DHT22;62136;-35.664;-63.766;2023-06-19T09:57:41;15.70;51.70
59975;DHT22;62136;-35.664;-63.766;2023-06-19T10:00:09;15.70;51.60
59975;DHT22;62136;-35.664;-63.766;2023-06-19T10:02:43;15.70;51.80
59975;DHT22;62136;-35.664;-63.766;2023-06-19T10:05:11;15.70;51.90
59975;DHT22;62136;-35.664;-63.766;2023-06-19T10:07:46;15.70;51.80
59975;DHT22;62136;-35.664;-63.766;2023-06-19T10:10:27;15.70;51.60
59975;DHT22;62136;-35.664;-63.766;2023-06-19T10:12:58;15.70;52.20
59975;DHT22;62136;-35.664;-63.766;2023-06-19T10:15:28;15.70;51.70
59975;DHT22;62136;-35.664;-63.766;2023-06-19T10:18:05;15.70;51.80
59975;DHT22;62136;-35.664;-63.766;2023-06-19T10:20:34;15.70;52.00
59975;DHT22;62136;-35.664;-63.766;2023-06-19T10:25:38;15.70;52.00
59975;DHT22;62136;-35.664;-63.766;2023-06-19T10:28:27;15.70;52.00
59975;DHT22;62136;-35.664;-63.766;2023-06-19T10:31:01;15.70;52.10
59975;DHT22;62136;-35.664;-63.766;2023-06-19T10:33:31;15.70;51.80
59975;DHT22;62136;-35.664;-63.766;2023-06-19T10:36:00;15.60;52.10
59975;DHT22;62136;-35.664;-63.766;2023-06-19T10:38:28;15.60;52.10
59975;DHT22;62136;-35.664;-63.766;2023-06-19T10:40:55;15.60;52.00
59975;DHT22;62136;-35.664;-63.766;2023-06-19T10:43:23;15.70;52.00
59975;DHT22;62136;-35.664;-63.766;2023-06-19T10:45:51;15.70;52.00
59975;DHT22;62136;-35.664;-63.766;2023-06-19T10:48:21;15.60;52.00
59975;DHT22;62136;-35.664;-63.766;2023-06-19T10:50:49;15.60;52.60
59975;DHT22;62136;-35.664;-63.766;2023-06-19T10:53:27;15.60;52.00
59975;DHT22;62136;-35.664;-63.766;2023-06-19T10:56:01;15.60;52.00
59975;DHT22;62136;-35.664;-63.766;2023-06-19T10:58:29;15.60;52.00
59975;DHT22;62136;-35.664;-63.766;2023-06-19T11:00:56;15.60;51.80
59975;DHT22;62136;-35.664;-63.766;2023-06-19T11:03:23;15.60;51.90
59975;DHT22;62136;-35.664;-63.766;2023-06-19T11:05:50;15.60;52.30
59975;DHT22;62136;-35.664;-63.766;2023-06-19T11:08:19;15.60;52.10
59975;DHT22;62136;-35.664;-63.766;2023-06-19T11:10:46;15.60;52.10
59975;DHT22;62136;-35.664;-63.766;2023-06-19T11:13:18;15.70;52.20
59975;DHT22;62136;-35.664;-63.766;2023-06-19T11:15:46;15.60;52.20
59975;DHT22;62136;-35.664;-63.766;2023-06-19T11:18:16;15.70;52.30
59975;DHT22;62136;-35.664;-63.766;2023-06-19T11:23:11;15.70;52.20
59975;DHT22;62136;-35.664;-63.766;2023-06-19T11:25:39;15.60;52.00
59975;DHT22;62136;-35.664;-63.766;2023-06-19T11:28:16;15.60;52.30
59975;DHT22;62136;-35.664;-63.766;2023-06-19T11:30:56;15.70;52.00
59975;DHT22;62136;-35.664;-63.766;2023-06-19T11:33:24;15.70;52.00
59975;DHT22;62136;-35.664;-63.766;2023-06-19T11:35:55;15.60;52.20
59975;DHT22;62136;-35.664;-63.766;2023-06-19T11:38:26;15.60;52.30
59975;DHT22;62136;-35.664;-63.766;2023-06-19T11:40:55;15.60;52.20
59975;DHT22;62136;-35.664;-63.766;2023-06-19T11:43:30;15.60;52.30
59975;DHT22;62136;-35.664;-63.766;2023-06-19T11:46:05;15.60;52.30
59975;DHT22;62136;-35.664;-63.766;2023-06-19T11:48:36;15.60;52.30
59975;DHT22;62136;-35.664;-63.766;2023-06-19T11:51:03;15.60;52.40
59975;DHT22;62136;-35.664;-63.766;2023-06-19T11:53:30;15.60;52.10
59975;DHT22;62136;-35.664;-63.766;2023-06-19T11:55:57;15.60;52.10
59975;DHT22;62136;-35.664;-63.766;2023-06-19T11:58:24;15.60;52.10
59975;DHT22;62136;-35.664;-63.766;2023-06-19T12:00:53;15.60;52.40
59975;DHT22;62136;-35.664;-63.766;2023-06-19T12:03:20;15.60;52.40
59975;DHT22;62136;-35.664;-63.766;2023-06-19T12:05:47;15.60;52.60
59975;DHT22;62136;-35.664;-63.766;2023-06-19T12:08:14;15.60;52.50
59975;DHT22;62136;-35.664;-63.766;2023-06-19T12:10:41;15.60;52.30
59975;DHT22;62136;-35.664;-63.766;2023-06-19T12:13:08;15.60;52.40
59975;DHT22;62136;-35.664;-63.766;2023-06-19T12:15:35;15.60;52.50
59975;DHT22;62136;-35.664;-63.766;2023-06-19T12:18:02;15.60;52.10
59975;DHT22;62136;-35.664;-63.766;2023-06-19T12:20:30;15.60;52.50
59975;DHT22;62136;-35.664;-63.766;2023-06-19T12:22:57;15.70;52.30
59975;DHT22;62136;-35.664;-63.766;2023-06-19T12:25:24;15.60;52.40
59975;DHT22;62136;-35.664;-63.766;2023-06-19T12:27:51;15.60;52.50
59975;DHT22;62136;-35.664;-63.766;2023-06-19T12:30:18;15.60;52.40
59975;DHT22;62136;-35.664;-63.766;2023-06-19T12:32:45;15.60;52.40
59975;DHT22;62136;-35.664;-63.766;2023-06-19T12:35:16;15.60;52.70
59975;DHT22;62136;-35.664;-63.766;2023-06-19T12:37:43;15.70;52.50
59975;DHT22;62136;-35.664;-63.766;2023-06-19T12:40:10;15.60;52.40
59975;DHT22;62136;-35.664;-63.766;2023-06-19T12:42:37;15.70;52.30
59975;DHT22;62136;-35.664;-63.766;2023-06-19T12:45:04;15.60;52.40
59975;DHT22;62136;-35.664;-63.766;2023-06-19T12:47:32;15.60;52.50
59975;DHT22;62136;-35.664;-63.766;2023-06-19T12:49:59;15.70;52.30
59975;DHT22;62136;-35.664;-63.766;2023-06-19T12:52:27;15.60;52.50
59975;DHT22;62136;-35.664;-63.766;2023-06-19T12:54:54;15.60;52.50
59975;DHT22;62136;-35.664;-63.766;2023-06-19T12:57:21;15.60;52.30
59975;DHT22;62136;-35.664;-63.766;2023-06-19T12:59:48;15.60;52.50
59975;DHT22;62136;-35.664;-63.766;2023-06-19T13:02:15;15.60;52.60
59975;DHT22;62136;-35.664;-63.766;2023-06-19T13:04:42;15.70;52.40
59975;DHT22;62136;-35.664;-63.766;2023-06-19T13:07:09;15.60;52.40
59975;DHT22;62136;-35.664;-63.766;2023-06-19T13:09:36;15.70;52.70
59975;DHT22;62136;-35.664;-63.766;2023-06-19T13:12:03;15.70;52.60
59975;DHT22;62136;-35.664;-63.766;2023-06-19T13:14:30;15.60;52.30
59975;DHT22;62136;-35.664;-63.766;2023-06-19T13:16:58;15.60;52.40
59975;DHT22;62136;-35.664;-63.766;2023-06-19T13:19:26;15.70;52.40
59975;DHT22;62136;-35.664;-63.766;2023-06-19T13:21:53;15.70;52.50
59975;DHT22;62136;-35.664;-63.766;2023-06-19T13:24:20;15.70;52.30
59975;DHT22;62136;-35.664;-63.766;2023-06-19T13:26:47;15.60;52.60
59975;DHT22;62136;-35.664;-63.766;2023-06-19T13:29:15;15.60;52.60
59975;DHT22;62136;-35.664;-63.766;2023-06-19T13:31:42;15.70;52.60
59975;DHT22;62136;-35.664;-63.766;2023-06-19T13:34:09;15.70;52.60
59975;DHT22;62136;-35.664;-63.766;2023-06-19T13:36:37;15.60;52.50
59975;DHT22;62136;-35.664;-63.766;2023-06-19T13:39:05;15.70;52.60
59975;DHT22;62136;-35.664;-63.766;2023-06-19T13:41:32;15.60;52.60
59975;DHT22;62136;-35.664;-63.766;2023-06-19T13:44:00;15.70;52.60
59975;DHT22;62136;-35.664;-63.766;2023-06-19T13:46:27;15.70;52.50
59975;DHT22;62136;-35.664;-63.766;2023-06-19T13:48:54;15.70;52.70
59975;DHT22;62136;-35.664;-63.766;2023-06-19T13:51:22;15.70;52.60
59975;DHT22;62136;-35.664;-63.766;2023-06-19T13:53:50;15.60;52.80
59975;DHT22;62136;-35.664;-63.766;2023-06-19T13:56:18;15.60;52.80
59975;DHT22;62136;-35.664;-63.766;2023-06-19T13:58:45;15.70;52.90
59975;DHT22;62136;-35.664;-63.766;2023-06-19T14:01:12;15.60;52.80
59975;DHT22;62136;-35.664;-63.766;2023-06-19T14:03:39;15.60;52.70
59975;DHT22;62136;-35.664;-63.766;2023-06-19T14:06:06;15.70;52.70
59975;DHT22;62136;-35.664;-63.766;2023-06-19T14:08:34;15.70;52.90
59975;DHT22;62136;-35.664;-63.766;2023-06-19T14:11:02;15.60;52.90
59975;DHT22;62136;-35.664;-63.766;2023-06-19T14:13:29;15.70;53.00
59975;DHT22;62136;-35.664;-63.766;2023-06-19T14:15:56;15.60;52.90
59975;DHT22;62136;-35.664;-63.766;2023-06-19T14:18:24;15.60;52.70
59975;DHT22;62136;-35.664;-63.766;2023-06-19T14:20:52;15.70;53.00
59975;DHT22;62136;-35.664;-63.766;2023-06-19T14:23:19;15.60;52.70
59975;DHT22;62136;-35.664;-63.766;2023-06-19T14:25:46;15.70;53.10
59975;DHT22;62136;-35.664;-63.766;2023-06-19T14:28:14;15.60;52.90
59975;DHT22;62136;-35.664;-63.766;2023-06-19T14:30:41;15.60;53.10
59975;DHT22;62136;-35.664;-63.766;2023-06-19T14:33:08;15.60;53.00
59975;DHT22;62136;-35.664;-63.766;2023-06-19T14:35:42;15.70;53.10
59975;DHT22;62136;-35.664;-63.766;2023-06-19T14:38:15;15.60;53.00
59975;DHT22;62136;-35.664;-63.766;2023-06-19T14:40:42;15.70;53.10
59975;DHT22;62136;-35.664;-63.766;2023-06-19T14:43:10;15.60;52.90
59975;DHT22;62136;-35.664;-63.766;2023-06-19T14:45:37;15.60;53.00
59975;DHT22;62136;-35.664;-63.766;2023-06-19T14:48:06;15.70;53.10
59975;DHT22;62136;-35.664;-63.766;2023-06-19T14:50:33;15.70;53.10
59975;DHT22;62136;-35.664;-63.766;2023-06-19T14:53:00;15.60;52.90
59975;DHT22;62136;-35.664;-63.766;2023-06-19T14:55:27;15.70;53.00
59975;DHT22;62136;-35.664;-63.766;2023-06-19T14:57:54;15.70;53.10
59975;DHT22;62136;-35.664;-63.766;2023-06-19T15:00:21;15.70;53.10
59975;DHT22;62136;-35.664;-63.766;2023-06-19T15:02:49;15.70;52.90
59975;DHT22;62136;-35.664;-63.766;2023-06-19T15:05:16;15.60;53.10
59975;DHT22;62136;-35.664;-63.766;2023-06-19T15:07:43;15.70;53.10